Time;durP1;ratioP1;P1;durP2;ratioP2;P2;SDS_P1;SDS_P2;PMS_P1;PMS_P2;Temp;Humidity;BMP_temperature;BMP_pressure;BME280_temperature;BME280_humidity;BME280_pressure;Samples;Min_cycle;Max_cycle;Signal;HPM_P1;HPM_P2
2023/05/18 00:01:56;;;;;;;;;;;;;;;16.37;81.41;99866.84;5040343;28;20455;-43
2023/05/18 00:04:22;;;;;;;;;;;;;;;17.16;83.08;99854.75;5042115;28;19996;-43
2023/05/18 00:06:48;;;;;;;;;;;;;;;17.49;78.92;99820.22;5041901;28;19920;-43
2023/05/18 00:09:14;;;;;;;;;;;;;;;16.64;82.89;99863.06;5041811;28;19927;-43
2023/05/18 00:11:39;;;;;;;;;;;;;;;16.64;82.57;99852.66;5041588;28;19917;-43
2023/05/18 00:14:06;;;;;;;;;;;;;;;16.51;83.53;99859.28;5041543;28;19924;-43
2023/05/18 00:16:31;;;;;;;;;;;;;;;16.29;82.12;99842.00;5040998;28;20615;-43
2023/05/18 00:18:56;;;;;;;;;;;;;;;16.81;83.19;99848.50;5023937;28;20003;-43
2023/05/18 00:21:22;;;;;;;;;;;;;;;17.21;80.38;99816.31;5041068;28;20058;-43
2023/05/18 00:23:49;;;;;;;;;;;;;;;17.37;79.12;99816.44;5041492;28;20003;-43
2023/05/18 00:26:14;;;;;;;;;;;;;;;17.23;78.78;99814.50;5041713;28;19920;-43
2023/05/18 00:28:39;;;;;;;;;;;;;;;16.83;80.77;99841.47;5041421;28;20533;-43
2023/05/18 00:31:06;;;;;;;;;;;;;;;16.88;80.21;99829.13;5040606;28;19924;-43
2023/05/18 00:33:31;;;;;;;;;;;;;;;17.28;79.63;99830.72;5041505;28;19921;-43
2023/05/18 00:35:56;;;;;;;;;;;;;;;17.48;77.52;99811.59;5041079;28;19989;-43
2023/05/18 00:38:21;;;;;;;;;;;;;;;17.37;76.79;99807.81;5023971;28;19917;-43
2023/05/18 00:40:46;;;;;;;;;;;;;;;17.29;76.53;99813.38;5041444;28;20370;-42
2023/05/18 00:43:12;;;;;;;;;;;;;;;17.24;76.64;99816.19;5039334;28;20437;-43
2023/05/18 00:45:37;;;;;;;;;;;;;;;17.25;77.50;99822.25;5039592;28;20350;-43
2023/05/18 00:48:02;;;;;;;;;;;;;;;17.28;76.45;99816.88;5040901;28;19940;-42
2023/05/18 00:50:27;;;;;;;;;;;;;;;17.21;76.83;99815.47;5041669;28;19959;-43
2023/05/18 00:52:53;;;;;;;;;;;;;;;17.04;77.25;99824.91;5022621;28;20301;-43
2023/05/18 00:55:19;;;;;;;;;;;;;;;16.98;77.74;99827.78;5039923;28;20239;-44
2023/05/18 00:57:47;;;;;;;;;;;;;;;17.05;77.54;99821.38;5040897;28;19923;-44
2023/05/18 01:00:12;;;;;;;;;;;;;;;16.96;78.18;99831.38;5040137;28;20397;-42
2023/05/18 01:02:44;;;;;;;;;;;;;;;15.70;84.05;99881.63;5038781;28;19916;-42
2023/05/18 01:05:10;;;;;;;;;;;;;;;16.57;80.82;99840.81;5039804;28;20781;-42
2023/05/18 01:07:36;;;;;;;;;;;;;;;16.76;79.31;99824.41;5040247;28;19921;-43
2023/05/18 01:10:01;;;;;;;;;;;;;;;16.07;80.68;99846.41;5040530;28;19917;-43
2023/05/18 01:12:28;;;;;;;;;;;;;;;15.38;85.45;99883.69;5040302;28;19939;-43
2023/05/18 01:15:11;;;;;;;;;;;;;;;16.01;84.68;99857.91;5019878;28;19924;-42
2023/05/18 01:17:46;;;;;;;;;;;;;;;16.47;81.12;99830.00;5022902;28;20654;-43
2023/05/18 01:20:17;;;;;;;;;;;;;;;16.53;80.73;99834.06;5039844;28;19929;-43
2023/05/18 01:22:43;;;;;;;;;;;;;;;16.44;79.53;99834.47;5021476;28;19986;-43
2023/05/18 01:25:18;;;;;;;;;;;;;;;16.53;79.71;99836.66;5038859;28;19952;-42
2023/05/18 01:27:45;;;;;;;;;;;;;;;16.36;79.60;99829.59;5040112;28;19920;-43
2023/05/18 01:30:10;;;;;;;;;;;;;;;16.47;80.50;99843.00;5020914;28;19947;-43
2023/05/18 01:32:39;;;;;;;;;;;;;;;16.31;80.60;99835.00;5020935;28;19920;-42
2023/05/18 01:35:04;;;;;;;;;;;;;;;16.54;80.41;99840.97;5038714;28;19956;-43
2023/05/18 01:37:30;;;;;;;;;;;;;;;16.34;80.04;99840.97;5038983;28;19998;-43
2023/05/18 01:39:55;;;;;;;;;;;;;;;16.09;80.27;99845.44;5038698;28;20786;-43
2023/05/18 01:42:21;;;;;;;;;;;;;;;15.76;82.80;99855.44;5021160;28;19917;-43
2023/05/18 01:44:48;;;;;;;;;;;;;;;16.10;81.25;99838.47;5019479;28;19928;-43
2023/05/18 01:47:14;;;;;;;;;;;;;;;15.50;83.14;99860.78;5020505;28;20401;-43
2023/05/18 01:49:40;;;;;;;;;;;;;;;16.04;81.91;99841.34;5021359;28;19917;-43
2023/05/18 01:52:06;;;;;;;;;;;;;;;16.06;80.68;99834.34;5039006;28;19928;-43
2023/05/18 01:54:31;;;;;;;;;;;;;;;16.15;80.31;99831.34;5021070;28;19913;-43
2023/05/18 01:56:56;;;;;;;;;;;;;;;16.00;80.55;99839.78;5038909;28;19916;-43
2023/05/18 01:59:22;;;;;;;;;;;;;;;16.00;80.80;99834.59;5017661;28;19960;-43
2023/05/18 02:01:48;;;;;;;;;;;;;;;15.98;80.68;99836.38;5018226;28;19947;-43
2023/05/18 02:04:13;;;;;;;;;;;;;;;15.84;80.94;99837.78;5038972;28;19920;-43
2023/05/18 02:06:38;;;;;;;;;;;;;;;15.35;82.57;99854.41;5039218;28;19979;-43
2023/05/18 02:09:04;;;;;;;;;;;;;;;15.92;81.20;99826.25;5038422;28;19912;-43
2023/05/18 02:11:29;;;;;;;;;;;;;;;15.86;81.16;99833.38;5038665;28;19920;-43
2023/05/18 02:13:55;;;;;;;;;;;;;;;15.93;80.55;99827.94;5038359;28;19917;-43
2023/05/18 02:16:20;;;;;;;;;;;;;;;15.85;81.19;99831.72;5037169;28;19971;-43
2023/05/18 02:18:45;;;;;;;;;;;;;;;15.83;81.23;99843.91;5038803;28;19991;-43
2023/05/18 02:21:12;;;;;;;;;;;;;;;15.71;80.94;99834.00;5038253;28;19970;-42
2023/05/18 02:23:37;;;;;;;;;;;;;;;15.65;81.29;99844.59;5038858;28;20029;-43
2023/05/18 02:26:02;;;;;;;;;;;;;;;15.77;81.56;99836.34;5037929;28;19925;-43
2023/05/18 02:28:28;;;;;;;;;;;;;;;15.75;81.87;99851.16;5039140;28;19917;-43
2023/05/18 02:30:53;;;;;;;;;;;;;;;15.81;80.95;99839.69;5037052;28;19916;-43
2023/05/18 02:33:24;;;;;;;;;;;;;;;15.53;80.67;99838.16;5037935;28;19917;-43
2023/05/18 02:35:50;;;;;;;;;;;;;;;14.51;84.17;99876.44;5042001;28;19924;-43
2023/05/18 02:38:15;;;;;;;;;;;;;;;13.25;88.67;99909.66;5042896;28;19916;-43
2023/05/18 02:40:40;;;;;;;;;;;;;;;14.51;90.23;99905.78;5041684;28;19960;-43
2023/05/18 02:43:05;;;;;;;;;;;;;;;15.11;87.03;99862.22;5041491;28;20604;-44
2023/05/18 02:45:31;;;;;;;;;;;;;;;15.45;84.07;99843.63;5041498;28;20278;-43
2023/05/18 02:47:56;;;;;;;;;;;;;;;15.38;84.49;99854.31;5042806;28;19929;-43
2023/05/18 02:50:21;;;;;;;;;;;;;;;15.42;84.14;99854.13;5042450;28;20003;-43
2023/05/18 02:52:48;;;;;;;;;;;;;;;15.03;84.11;99862.50;5041281;28;19975;-43
2023/05/18 02:55:13;;;;;;;;;;;;;;;14.95;85.48;99874.06;5042312;28;19931;-43
2023/05/18 02:57:42;;;;;;;;;;;;;;;15.20;84.13;99856.69;5042617;28;19916;-43
2023/05/18 03:00:10;;;;;;;;;;;;;;;15.24;84.35;99860.84;5040956;28;19920;-43
2023/05/18 03:02:37;;;;;;;;;;;;;;;14.59;85.26;99872.69;5022692;28;20464;-43
2023/05/18 03:05:04;;;;;;;;;;;;;;;14.22;87.55;99891.19;5041505;28;19999;-43
2023/05/18 03:07:31;;;;;;;;;;;;;;;14.33;89.51;99901.22;5041310;28;19928;-43
2023/05/18 03:09:57;;;;;;;;;;;;;;;14.80;85.91;99865.94;5042083;28;20041;-43
2023/05/18 03:12:22;;;;;;;;;;;;;;;14.99;84.73;99855.72;5041567;28;19970;-43
2023/05/18 03:14:47;;;;;;;;;;;;;;;14.98;84.58;99858.38;5039822;28;19921;-42
2023/05/18 03:17:12;;;;;;;;;;;;;;;14.91;83.89;99860.34;5041962;28;21005;-42
2023/05/18 03:19:37;;;;;;;;;;;;;;;14.92;83.45;99856.84;5041386;28;20012;-43
2023/05/18 03:22:04;;;;;;;;;;;;;;;15.05;83.77;99860.69;5041999;28;20007;-42
2023/05/18 03:24:38;;;;;;;;;;;;;;;14.94;83.37;99865.44;5041571;28;19960;-42
2023/05/18 03:27:04;;;;;;;;;;;;;;;14.93;83.88;99865.47;5042468;28;19963;-42
2023/05/18 03:29:29;;;;;;;;;;;;;;;14.88;83.86;99868.22;5039241;28;20374;-43
2023/05/18 03:31:54;;;;;;;;;;;;;;;14.89;83.83;99869.91;5042412;28;19977;-43
2023/05/18 03:34:20;;;;;;;;;;;;;;;14.73;83.81;99872.19;5040734;28;19925;-42
2023/05/18 03:36:46;;;;;;;;;;;;;;;14.80;84.16;99875.44;5041125;28;19920;-43
2023/05/18 03:39:11;;;;;;;;;;;;;;;14.84;83.80;99864.91;5041698;28;19921;-43
2023/05/18 03:41:37;;;;;;;;;;;;;;;13.71;87.75;99921.28;5042138;28;20159;-42
2023/05/18 03:44:02;;;;;;;;;;;;;;;14.45;85.71;99880.06;5023114;28;20374;-42
2023/05/18 03:46:27;;;;;;;;;;;;;;;14.38;86.17;99883.75;5039013;28;20419;-42
2023/05/18 03:48:55;;;;;;;;;;;;;;;15.04;84.61;99869.38;5024235;28;20377;-43
2023/05/18 03:51:20;;;;;;;;;;;;;;;15.04;83.10;99866.78;5041509;28;19923;-43
2023/05/18 03:53:46;;;;;;;;;;;;;;;14.97;82.38;99865.31;5041442;28;19921;-43
2023/05/18 03:56:12;;;;;;;;;;;;;;;15.04;82.95;99869.38;5038728;28;20386;-43
2023/05/18 03:58:37;;;;;;;;;;;;;;;14.95;82.32;99872.31;5037255;28;19924;-43
2023/05/18 04:01:02;;;;;;;;;;;;;;;14.95;83.42;99879.25;5038489;28;19925;-43
2023/05/18 04:03:29;;;;;;;;;;;;;;;15.17;82.52;99874.97;5021005;28;19928;-43
2023/05/18 04:05:54;;;;;;;;;;;;;;;15.26;82.66;99866.00;5038318;28;20015;-43
2023/05/18 04:08:20;;;;;;;;;;;;;;;15.25;83.16;99872.91;5041129;28;20023;-43
2023/05/18 04:10:45;;;;;;;;;;;;;;;14.97;84.73;99893.84;5023904;28;19917;-43
2023/05/18 04:13:10;;;;;;;;;;;;;;;15.23;84.23;99884.25;5041004;28;20570;-43
2023/05/18 04:15:36;;;;;;;;;;;;;;;15.38;82.83;99868.13;5039222;28;19924;-43
2023/05/18 04:18:02;;;;;;;;;;;;;;;15.37;82.77;99871.63;5040147;28;19974;-43
2023/05/18 04:20:28;;;;;;;;;;;;;;;15.48;82.82;99874.63;5022662;28;20016;-43
2023/05/18 04:22:54;;;;;;;;;;;;;;;15.74;82.36;99870.25;5040418;28;20554;-43
2023/05/18 04:25:19;;;;;;;;;;;;;;;15.84;82.00;99865.53;5038749;28;19940;-43
2023/05/18 04:27:44;;;;;;;;;;;;;;;15.77;81.02;99858.88;5039896;28;19921;-43
2023/05/18 04:30:10;;;;;;;;;;;;;;;15.39;82.50;99866.38;5022034;28;19966;-43
2023/05/18 04:32:36;;;;;;;;;;;;;;;15.85;82.51;99862.88;5039909;28;20749;-43
2023/05/18 04:35:02;;;;;;;;;;;;;;;15.75;82.18;99865.88;5040800;28;19916;-43
2023/05/18 04:37:28;;;;;;;;;;;;;;;15.95;82.36;99865.09;5021565;28;19928;-43
2023/05/18 04:39:53;;;;;;;;;;;;;;;15.11;86.38;99910.66;5040483;28;20169;-43
2023/05/18 04:42:18;;;;;;;;;;;;;;;16.13;83.63;99872.16;5040459;28;19917;-43
2023/05/18 04:44:44;;;;;;;;;;;;;;;15.96;81.60;99866.78;5039107;28;19916;-44
2023/05/18 04:47:09;;;;;;;;;;;;;;;15.87;79.86;99855.88;5039414;28;20023;-43
2023/05/18 04:49:34;;;;;;;;;;;;;;;15.75;80.26;99869.31;5040470;28;19927;-43
2023/05/18 04:52:00;;;;;;;;;;;;;;;15.87;83.37;99887.03;5036829;28;19917;-43
2023/05/18 04:54:25;;;;;;;;;;;;;;;16.52;83.94;99887.00;5039466;28;19925;-43
2023/05/18 04:56:51;;;;;;;;;;;;;;;16.60;83.72;99882.28;5038946;28;19992;-43
2023/05/18 04:59:16;;;;;;;;;;;;;;;15.43;83.39;99886.97;5039299;28;20102;-43
2023/05/18 05:01:41;;;;;;;;;;;;;;;15.72;83.90;99882.44;5014768;28;19921;-43
2023/05/18 05:04:06;;;;;;;;;;;;;;;16.41;82.48;99865.81;5033301;28;20145;-43
2023/05/18 05:06:32;;;;;;;;;;;;;;;16.62;81.19;99859.66;5036771;28;20007;-43
2023/05/18 05:08:57;;;;;;;;;;;;;;;16.56;82.02;99875.56;5038748;28;20035;-43
2023/05/18 05:11:22;;;;;;;;;;;;;;;16.61;80.88;99863.19;5038146;28;20018;-43
2023/05/18 05:13:48;;;;;;;;;;;;;;;16.86;80.81;99864.78;5039888;28;19920;-43
2023/05/18 05:16:13;;;;;;;;;;;;;;;16.77;81.98;99867.75;5037225;28;19986;-43
2023/05/18 05:18:38;;;;;;;;;;;;;;;16.88;81.82;99871.59;5038557;28;19924;-43
2023/05/18 05:21:05;;;;;;;;;;;;;;;17.25;80.93;99862.13;5039715;28;19967;-43
2023/05/18 05:23:30;;;;;;;;;;;;;;;15.72;81.32;99887.63;5020799;28;20023;-43
2023/05/18 05:25:55;;;;;;;;;;;;;;;15.21;86.02;99923.25;5037576;28;20019;-43
2023/05/18 05:28:20;;;;;;;;;;;;;;;16.07;86.20;99916.56;5039843;28;20358;-43
2023/05/18 05:30:46;;;;;;;;;;;;;;;16.78;83.87;99880.66;5035939;28;20447;-43
2023/05/18 05:33:11;;;;;;;;;;;;;;;16.86;85.29;99901.19;5039390;28;20413;-43
2023/05/18 05:35:36;;;;;;;;;;;;;;;14.83;91.97;99971.28;5039762;28;19967;-43
2023/05/18 05:38:01;;;;;;;;;;;;;;;15.42;90.98;99937.19;5039222;28;20428;-43
2023/05/18 05:40:26;;;;;;;;;;;;;;;15.43;90.83;99933.69;5040142;28;20256;-43
2023/05/18 05:42:52;;;;;;;;;;;;;;;14.57;92.18;99957.47;5036686;28;20929;-43
2023/05/18 05:45:17;;;;;;;;;;;;;;;15.01;93.34;99952.50;5037023;28;19971;-43
2023/05/18 05:47:42;;;;;;;;;;;;;;;13.83;95.19;99984.78;5037819;28;19928;-43
2023/05/18 05:50:07;;;;;;;;;;;;;;;15.37;95.96;99959.88;5040048;28;20384;-43
2023/05/18 05:52:33;;;;;;;;;;;;;;;16.57;89.74;99910.19;5020516;28;20407;-43
2023/05/18 05:54:58;;;;;;;;;;;;;;;15.65;89.92;99932.91;5039016;28;20338;-43
2023/05/18 05:57:23;;;;;;;;;;;;;;;14.40;92.91;99964.91;5040057;28;20402;-43
2023/05/18 05:59:49;;;;;;;;;;;;;;;15.39;93.30;99952.03;5037914;28;19931;-43
2023/05/18 06:02:15;;;;;;;;;;;;;;;14.11;93.33;99968.41;5039934;28;19923;-43
2023/05/18 06:04:40;;;;;;;;;;;;;;;16.97;91.64;99930.19;5038248;28;19921;-43
2023/05/18 06:07:05;;;;;;;;;;;;;;;15.07;92.77;99969.59;5039553;28;19927;-43
2023/05/18 06:09:30;;;;;;;;;;;;;;;15.12;92.72;99964.22;5040600;28;21278;-43
2023/05/18 06:11:56;;;;;;;;;;;;;;;14.78;94.43;99970.56;5043975;28;19917;-43
2023/05/18 06:14:21;;;;;;;;;;;;;;;14.83;95.71;99972.13;5042016;28;19951;-43
2023/05/18 06:16:46;;;;;;;;;;;;;;;17.42;92.04;99921.22;5042823;28;19923;-43
2023/05/18 06:19:11;;;;;;;;;;;;;;;14.83;92.97;99968.69;5042074;28;19920;-43
2023/05/18 06:21:37;;;;;;;;;;;;;;;14.95;96.12;99985.59;5043990;28;20099;-43
2023/05/18 06:24:03;;;;;;;;;;;;;;;15.23;99.32;100004.47;5042265;28;19923;-44
2023/05/18 06:26:29;;;;;;;;;;;;;;;14.87;99.26;99996.22;5042499;28;19967;-43
2023/05/18 06:28:54;;;;;;;;;;;;;;;14.27;97.30;99999.88;5042069;28;20458;-43
2023/05/18 06:31:19;;;;;;;;;;;;;;;14.28;100.00;100027.47;5041156;28;19928;-43
2023/05/18 06:33:45;;;;;;;;;;;;;;;15.15;97.35;99975.38;5042671;28;20388;-43
2023/05/18 06:36:10;;;;;;;;;;;;;;;16.19;94.86;99944.66;5042179;28;19920;-43
2023/05/18 06:38:35;;;;;;;;;;;;;;;15.38;94.45;99974.53;5041882;28;19921;-43
2023/05/18 06:41:00;;;;;;;;;;;;;;;16.92;92.71;99951.22;5040621;28;19924;-43
2023/05/18 06:43:27;;;;;;;;;;;;;;;14.99;94.27;99975.06;5041186;28;19921;-43
2023/05/18 06:45:52;;;;;;;;;;;;;;;15.71;95.20;99974.22;5040450;28;19924;-43
2023/05/18 06:48:17;;;;;;;;;;;;;;;14.99;95.70;99990.63;5043882;28;20294;-43
2023/05/18 06:50:42;;;;;;;;;;;;;;;14.20;96.94;100005.22;5040979;28;19925;-43
2023/05/18 06:53:08;;;;;;;;;;;;;;;16.35;96.04;99980.44;5042428;28;19916;-43
2023/05/18 06:55:33;;;;;;;;;;;;;;;16.33;93.65;99972.72;5041581;28;19931;-43
2023/05/18 06:57:58;;;;;;;;;;;;;;;15.22;94.87;99996.75;5041858;28;19920;-43
2023/05/18 07:00:23;;;;;;;;;;;;;;;15.77;95.89;99997.38;5040988;28;19928;-43
2023/05/18 07:02:49;;;;;;;;;;;;;;;15.00;100.00;100031.19;5040720;28;19917;-43
2023/05/18 07:05:15;;;;;;;;;;;;;;;16.18;98.06;100000.16;5041922;28;20015;-43
2023/05/18 07:07:40;;;;;;;;;;;;;;;15.89;96.60;99994.31;5041965;28;20011;-43
2023/05/18 07:10:06;;;;;;;;;;;;;;;16.05;93.53;99972.94;5041341;28;20516;-43
2023/05/18 07:12:31;;;;;;;;;;;;;;;14.38;94.84;99997.78;5042709;28;20500;-43
2023/05/18 07:14:56;;;;;;;;;;;;;;;15.03;98.60;100012.97;5041255;28;19967;-43
2023/05/18 07:17:22;;;;;;;;;;;;;;;14.76;97.50;100003.53;5041901;28;19921;-43
2023/05/18 07:19:47;;;;;;;;;;;;;;;16.09;96.85;99990.09;5041582;28;19932;-43
2023/05/18 07:22:12;;;;;;;;;;;;;;;16.15;91.93;99961.28;5041377;28;20210;-43
2023/05/18 07:24:37;;;;;;;;;;;;;;;14.33;99.80;100031.63;5042006;28;20314;-43
2023/05/18 07:27:03;;;;;;;;;;;;;;;15.93;96.73;99999.41;5041965;28;19932;-43
2023/05/18 07:29:28;;;;;;;;;;;;;;;15.86;95.04;99983.19;5041290;28;19913;-43
2023/05/18 07:31:53;;;;;;;;;;;;;;;17.11;93.50;99961.66;5040135;28;20468;-43
2023/05/18 07:34:19;;;;;;;;;;;;;;;17.60;87.19;99921.31;5039661;28;19925;-43
2023/05/18 07:36:44;;;;;;;;;;;;;;;16.51;90.93;99965.91;5042558;28;19956;-43
2023/05/18 07:39:17;;;;;;;;;;;;;;;15.26;93.23;99986.22;5040928;28;19929;-43
2023/05/18 07:41:42;;;;;;;;;;;;;;;16.35;93.44;99976.06;5042253;28;20368;-43
2023/05/18 07:44:07;;;;;;;;;;;;;;;17.84;87.72;99920.22;5040518;28;19927;-43
2023/05/18 07:46:32;;;;;;;;;;;;;;;16.01;92.24;99986.94;5040925;28;19921;-43
2023/05/18 07:48:57;;;;;;;;;;;;;;;17.63;89.54;99939.41;5041256;28;19970;-43
2023/05/18 07:51:23;;;;;;;;;;;;;;;17.29;90.04;99954.81;5042251;28;20035;-43
2023/05/18 07:53:48;;;;;;;;;;;;;;;16.13;92.09;99986.50;5041458;28;20517;-43
2023/05/18 07:56:13;;;;;;;;;;;;;;;16.10;95.22;99994.38;5040916;28;19925;-43
2023/05/18 07:58:39;;;;;;;;;;;;;;;19.70;86.41;99896.84;5039739;28;19924;-43
2023/05/18 08:01:04;;;;;;;;;;;;;;;18.83;83.43;99899.72;5038420;28;20054;-43
2023/05/18 08:03:30;;;;;;;;;;;;;;;19.19;83.52;99902.19;5022251;28;19927;-43
2023/05/18 08:05:55;;;;;;;;;;;;;;;17.25;86.56;99949.81;5040723;28;19920;-43
2023/05/18 08:08:20;;;;;;;;;;;;;;;16.97;84.65;99927.59;5040197;28;20460;-43
2023/05/18 08:10:46;;;;;;;;;;;;;;;15.98;91.72;99984.47;5041406;28;19922;-43
2023/05/18 08:13:11;;;;;;;;;;;;;;;17.20;91.35;99959.56;5039619;28;20278;-43
2023/05/18 08:15:37;;;;;;;;;;;;;;;16.43;90.68;99965.38;5039656;28;19921;-43
2023/05/18 08:18:03;;;;;;;;;;;;;;;16.78;90.99;99957.88;5041366;28;19955;-43
2023/05/18 08:20:31;;;;;;;;;;;;;;;16.40;94.30;99989.75;5040475;28;20003;-43
2023/05/18 08:22:56;;;;;;;;;;;;;;;18.50;90.12;99934.41;5040523;28;19920;-43
2023/05/18 08:25:22;;;;;;;;;;;;;;;16.67;87.39;99935.78;5038886;28;19978;-43
2023/05/18 08:27:47;;;;;;;;;;;;;;;17.18;89.40;99956.19;5040794;28;19917;-43
2023/05/18 08:30:12;;;;;;;;;;;;;;;18.31;82.78;99883.16;5039014;28;19923;-43
2023/05/18 08:32:38;;;;;;;;;;;;;;;19.35;84.44;99899.59;5038494;28;20364;-43
2023/05/18 08:35:03;;;;;;;;;;;;;;;18.67;83.05;99899.63;5039586;28;19935;-43
2023/05/18 08:37:29;;;;;;;;;;;;;;;18.75;78.14;99858.34;5040448;28;19921;-43
2023/05/18 08:39:55;;;;;;;;;;;;;;;16.42;83.36;99924.69;5040299;28;19925;-43
2023/05/18 08:42:20;;;;;;;;;;;;;;;19.00;79.14;99860.56;5039227;28;19928;-44
2023/05/18 08:44:50;;;;;;;;;;;;;;;18.60;84.17;99904.31;5039498;28;20575;-43
2023/05/18 08:47:15;;;;;;;;;;;;;;;19.34;77.55;99843.03;5023196;28;19924;-44
2023/05/18 08:49:41;;;;;;;;;;;;;;;18.26;82.18;99890.38;5039756;28;19924;-43
2023/05/18 08:52:06;;;;;;;;;;;;;;;16.84;80.82;99892.59;5040289;28;19921;-44
2023/05/18 08:54:31;;;;;;;;;;;;;;;18.33;83.00;99896.97;5039302;28;20608;-43
2023/05/18 08:56:57;;;;;;;;;;;;;;;18.01;78.20;99853.38;5022521;28;20447;-43
2023/05/18 08:59:23;;;;;;;;;;;;;;;16.95;73.99;99846.16;5038912;28;20385;-43
2023/05/18 09:01:49;;;;;;;;;;;;;;;18.24;75.29;99850.47;5039036;28;19974;-43
2023/05/18 09:04:15;;;;;;;;;;;;;;;20.04;70.09;99807.72;5039930;28;19920;-43
2023/05/18 09:06:40;;;;;;;;;;;;;;;18.19;74.16;99849.88;5039640;28;19951;-45
2023/05/18 09:09:05;;;;;;;;;;;;;;;17.75;77.11;99866.72;5021696;28;19920;-44
2023/05/18 09:11:34;;;;;;;;;;;;;;;17.48;81.13;99897.53;5020822;28;19921;-43
2023/05/18 09:14:00;;;;;;;;;;;;;;;18.97;78.51;99852.88;5040316;28;20273;-44
2023/05/18 09:16:25;;;;;;;;;;;;;;;17.44;76.02;99849.09;5038715;28;19916;-44
2023/05/18 09:18:50;;;;;;;;;;;;;;;17.94;72.80;99825.00;5021781;28;19917;-44
2023/05/18 09:21:15;;;;;;;;;;;;;;;19.43;76.33;99832.09;5020462;28;19924;-43
2023/05/18 09:23:42;;;;;;;;;;;;;;;19.08;74.43;99832.25;5040089;28;20413;-44
2023/05/18 09:26:12;;;;;;;;;;;;;;;20.48;73.39;99817.34;5038339;28;20360;-44
2023/05/18 09:28:38;;;;;;;;;;;;;;;20.26;75.15;99832.63;5040026;28;19916;-44
2023/05/18 09:31:04;;;;;;;;;;;;;;;18.56;75.90;99846.22;5038718;28;20031;-45
2023/05/18 09:33:34;;;;;;;;;;;;;;;20.69;70.97;99796.09;5021255;28;20019;-44
2023/05/18 09:35:59;;;;;;;;;;;;;;;20.34;68.21;99793.78;5038856;28;19917;-45
2023/05/18 09:38:26;;;;;;;;;;;;;;;20.45;74.74;99842.84;5021689;28;19921;-43
2023/05/18 09:40:52;;;;;;;;;;;;;;;18.36;72.88;99836.84;5018333;28;20140;-44
2023/05/18 09:43:19;;;;;;;;;;;;;;;18.87;70.88;99822.97;5038499;28;20578;-43
2023/05/18 09:45:45;;;;;;;;;;;;;;;20.20;73.97;99840.84;5038233;28;19920;-43
2023/05/18 09:48:11;;;;;;;;;;;;;;;18.40;69.64;99824.47;5039415;28;19924;-43
2023/05/18 09:50:36;;;;;;;;;;;;;;;19.34;74.20;99843.91;5038941;28;20008;-43
2023/05/18 09:53:08;;;;;;;;;;;;;;;21.13;65.86;99766.28;5037075;28;19924;-43
2023/05/18 09:55:35;;;;;;;;;;;;;;;21.50;66.89;99795.38;5038429;28;19928;-44
2023/05/18 09:58:02;;;;;;;;;;;;;;;19.42;71.43;99830.41;5036074;28;20373;-44
2023/05/18 10:00:27;;;;;;;;;;;;;;;20.08;71.11;99833.72;5035444;28;20429;-43
2023/05/18 10:02:52;;;;;;;;;;;;;;;23.34;67.07;99782.00;5034340;28;19935;-43
2023/05/18 10:05:21;;;;;;;;;;;;;;;20.53;69.83;99826.72;5018945;28;20042;-44
2023/05/18 10:07:47;;;;;;;;;;;;;;;21.28;72.59;99833.44;5037121;28;19921;-43
2023/05/18 10:10:12;;;;;;;;;;;;;;;20.97;68.53;99797.00;5036258;28;20029;-43
2023/05/18 10:12:38;;;;;;;;;;;;;;;21.48;70.13;99810.38;5018717;28;19925;-43
2023/05/18 10:15:04;;;;;;;;;;;;;;;21.01;66.18;99777.53;5037553;28;20021;-43
2023/05/18 10:17:29;;;;;;;;;;;;;;;22.53;68.46;99786.78;5021091;28;19917;-43
2023/05/18 10:19:54;;;;;;;;;;;;;;;22.47;64.57;99755.72;5019909;28;19920;-44
2023/05/18 10:22:22;;;;;;;;;;;;;;;22.18;69.20;99790.94;5039106;28;19974;-44
2023/05/18 10:24:49;;;;;;;;;;;;;;;22.11;66.23;99775.59;5019800;28;19936;-44
2023/05/18 10:27:14;;;;;;;;;;;;;;;20.32;66.71;99795.66;5038968;28;20554;-44
2023/05/18 10:29:40;;;;;;;;;;;;;;;23.89;60.56;99729.78;5038564;28;19916;-44
2023/05/18 10:32:05;;;;;;;;;;;;;;;23.36;62.00;99744.13;5039741;28;19923;-44
2023/05/18 10:34:33;;;;;;;;;;;;;;;20.01;67.95;99807.09;5019863;28;19920;-44
2023/05/18 10:37:00;;;;;;;;;;;;;;;19.78;69.50;99805.81;5038889;28;20521;-45
2023/05/18 10:39:25;;;;;;;;;;;;;;;19.59;72.54;99817.25;5039811;28;19920;-44
2023/05/18 10:41:50;;;;;;;;;;;;;;;18.77;74.70;99839.13;5039413;28;20440;-44
2023/05/18 10:44:16;;;;;;;;;;;;;;;20.47;73.57;99815.66;5021130;28;19928;-44
2023/05/18 10:46:41;;;;;;;;;;;;;;;22.80;68.42;99764.78;5020214;28;19952;-44
2023/05/18 10:49:11;;;;;;;;;;;;;;;22.53;67.03;99765.78;5040109;28;20005;-44
2023/05/18 10:51:37;;;;;;;;;;;;;;;23.88;64.64;99743.84;5022904;28;19936;-44
2023/05/18 10:54:09;;;;;;;;;;;;;;;21.46;65.46;99786.03;5038805;28;19916;-44
2023/05/18 10:56:36;;;;;;;;;;;;;;;21.35;69.20;99791.97;5041626;28;19920;-44
2023/05/18 10:59:01;;;;;;;;;;;;;;;22.38;74.01;99806.22;5025531;28;19960;-44
2023/05/18 11:01:27;;;;;;;;;;;;;;;24.06;65.48;99752.97;5024442;28;20023;-43
2023/05/18 11:03:52;;;;;;;;;;;;;;;21.88;61.31;99742.22;5023914;28;19948;-44
2023/05/18 11:06:17;;;;;;;;;;;;;;;23.09;64.50;99756.66;5024119;28;19952;-44
2023/05/18 11:08:44;;;;;;;;;;;;;;;22.98;66.59;99775.78;5024003;28;19967;-44
2023/05/18 11:11:10;;;;;;;;;;;;;;;19.73;71.61;99818.25;5024853;28;19916;-44
2023/05/18 11:13:37;;;;;;;;;;;;;;;22.58;62.93;99726.09;5042810;28;20007;-44
2023/05/18 11:16:04;;;;;;;;;;;;;;;21.79;66.93;99762.03;5023501;28;19967;-44
2023/05/18 11:18:35;;;;;;;;;;;;;;;21.61;63.23;99745.72;5042806;28;19924;-44
2023/05/18 11:21:01;;;;;;;;;;;;;;;24.00;58.01;99712.22;5042947;28;19917;-44
2023/05/18 11:23:30;;;;;;;;;;;;;;;21.79;64.42;99769.06;5042758;28;19939;-44
2023/05/18 11:25:55;;;;;;;;;;;;;;;21.99;65.06;99768.56;5041132;28;20356;-44
2023/05/18 11:28:21;;;;;;;;;;;;;;;23.80;59.98;99711.09;5024313;28;19920;-43
2023/05/18 11:30:47;;;;;;;;;;;;;;;21.62;59.87;99736.09;5041576;28;19921;-44
2023/05/18 11:33:16;;;;;;;;;;;;;;;22.31;59.25;99727.06;5042827;28;19994;-43
2023/05/18 11:35:59;;;;;;;;;;;;;;;21.76;64.49;99750.91;5042120;28;19916;-44
2023/05/18 11:38:44;;;;;;;;;;;;;;;23.49;60.51;99703.78;5042021;28;19921;-44
2023/05/18 11:41:25;;;;;;;;;;;;;;;21.51;69.72;99787.44;5024754;28;19931;-43
2023/05/18 11:43:57;;;;;;;;;;;;;;;21.88;63.04;99721.25;5042023;28;19920;-43
2023/05/18 11:46:22;;;;;;;;;;;;;;;21.99;60.06;99710.88;5041068;28;20779;-44
2023/05/18 11:48:47;;;;;;;;;;;;;;;22.24;63.84;99740.72;5039386;28;19921;-44
2023/05/18 11:51:12;;;;;;;;;;;;;;;21.84;63.09;99730.25;5016390;28;19920;-44
2023/05/18 11:53:37;;;;;;;;;;;;;;;22.44;61.25;99724.44;5035532;28;19916;-44
2023/05/18 11:56:03;;;;;;;;;;;;;;;23.55;55.70;99675.25;5020712;28;19924;-43
2023/05/18 11:58:28;;;;;;;;;;;;;;;21.84;66.54;99767.81;5037729;28;19927;-43
2023/05/18 12:00:54;;;;;;;;;;;;;;;23.08;59.61;99708.53;5015169;28;20020;-43
2023/05/18 12:03:22;;;;;;;;;;;;;;;24.86;58.32;99698.56;5020674;28;19921;-44
2023/05/18 12:05:48;;;;;;;;;;;;;;;23.26;56.20;99689.72;5018153;28;19928;-43
2023/05/18 12:08:17;;;;;;;;;;;;;;;22.89;58.82;99713.38;5021973;28;19913;-43
2023/05/18 12:10:43;;;;;;;;;;;;;;;23.64;56.36;99684.25;5040758;28;19916;-44
2023/05/18 12:13:08;;;;;;;;;;;;;;;25.16;54.49;99664.44;5041064;28;19932;-44
2023/05/18 12:15:33;;;;;;;;;;;;;;;26.54;58.15;99688.88;5021525;28;19985;-44
2023/05/18 12:17:59;;;;;;;;;;;;;;;25.78;52.21;99649.63;5037936;28;19920;-43
2023/05/18 12:20:25;;;;;;;;;;;;;;;23.02;57.50;99702.88;5036453;28;19929;-43
2023/05/18 12:22:51;;;;;;;;;;;;;;;25.71;57.22;99679.31;5036802;28;20573;-43
2023/05/18 12:25:20;;;;;;;;;;;;;;;25.13;53.85;99661.22;5035955;28;20016;-44
2023/05/18 12:27:48;;;;;;;;;;;;;;;22.34;57.33;99697.13;5015975;28;19920;-43
2023/05/18 12:30:13;;;;;;;;;;;;;;;23.07;54.76;99682.38;5037596;28;19924;-44
2023/05/18 12:32:43;;;;;;;;;;;;;;;26.59;50.64;99638.31;5037551;28;19921;-43
2023/05/18 12:35:08;;;;;;;;;;;;;;;26.88;49.78;99638.34;5038961;28;19920;-42
2023/05/18 12:37:33;;;;;;;;;;;;;;;25.28;49.26;99646.81;5039994;28;19925;-43
2023/05/18 12:39:59;;;;;;;;;;;;;;;22.97;48.82;99643.59;5041084;28;20492;-43